createdAt,value
2019-03-25T00:02:09.562Z,6.23
2019-03-25T00:04:37.975Z,6.19
2019-03-25T00:07:06.520Z,6.17
2019-03-25T00:09:34.938Z,6.14
2019-03-25T00:12:03.334Z,6.17
2019-03-25T00:14:31.759Z,6.08
2019-03-25T00:17:00.152Z,6.02
2019-03-25T00:19:28.546Z,6.00
2019-03-25T00:21:56.972Z,5.96
2019-03-25T00:24:25.435Z,5.93
2019-03-25T00:26:53.787Z,5.97
2019-03-25T00:29:22.185Z,5.95
2019-03-25T00:31:50.606Z,5.93
2019-03-25T00:34:18.991Z,5.95
2019-03-25T00:36:47.386Z,5.94
2019-03-25T00:39:15.797Z,5.90
2019-03-25T00:41:44.195Z,5.92
2019-03-25T00:44:12.622Z,5.89
2019-03-25T00:46:41.010Z,5.90
2019-03-25T00:49:09.504Z,5.88
2019-03-25T00:51:37.901Z,5.85
2019-03-25T00:54:06.371Z,5.86
2019-03-25T00:56:34.809Z,5.91
2019-03-25T00:59:03.262Z,5.89
2019-03-25T01:01:31.687Z,5.87
2019-03-25T01:04:00.114Z,5.82
2019-03-25T01:06:28.596Z,5.72
2019-03-25T01:08:57.013Z,5.70
2019-03-25T01:11:25.430Z,5.73
2019-03-25T01:13:53.841Z,5.69
2019-03-25T01:16:22.228Z,5.64
2019-03-25T01:18:50.645Z,5.66
2019-03-25T01:21:19.040Z,5.65
2019-03-25T01:23:47.508Z,5.62
2019-03-25T01:26:15.940Z,5.64
2019-03-25T01:28:44.419Z,5.63
2019-03-25T01:31:12.803Z,5.62
2019-03-25T01:33:42.829Z,5.56
2019-03-25T01:36:11.249Z,5.55
2019-03-25T01:38:39.652Z,5.55
2019-03-25T01:41:08.064Z,5.57
2019-03-25T01:43:36.468Z,5.61
2019-03-25T01:46:04.928Z,5.67
2019-03-25T01:48:33.364Z,5.78
2019-03-25T01:51:01.773Z,5.82
2019-03-25T01:53:30.190Z,5.85
2019-03-25T01:55:58.587Z,5.88
2019-03-25T01:58:27.066Z,5.77
2019-03-25T02:00:55.557Z,5.78
2019-03-25T02:03:25.000Z,5.77
2019-03-25T02:05:53.417Z,5.77
2019-03-25T02:08:21.838Z,5.78
2019-03-25T02:10:50.252Z,5.78
2019-03-25T02:13:18.647Z,5.68
2019-03-25T02:15:47.048Z,5.69
2019-03-25T02:18:15.468Z,5.74
2019-03-25T02:20:43.862Z,5.76
2019-03-25T02:23:12.356Z,5.78
2019-03-25T02:25:40.855Z,5.76
2019-03-25T02:28:09.249Z,5.76
2019-03-25T02:30:37.741Z,5.74
2019-03-25T02:33:06.128Z,5.80
2019-03-25T02:35:34.532Z,5.84
2019-03-25T02:38:03.053Z,5.86
2019-03-25T02:40:31.490Z,5.85
2019-03-25T02:42:59.890Z,5.86
2019-03-25T02:45:28.301Z,5.86
2019-03-25T02:47:56.688Z,5.87
2019-03-25T02:50:25.111Z,5.86
2019-03-25T02:52:53.507Z,5.85
2019-03-25T02:55:21.918Z,5.87
2019-03-25T02:57:50.391Z,5.89
2019-03-25T03:00:24.949Z,5.88
2019-03-25T03:02:53.366Z,5.91
2019-03-25T03:05:21.768Z,5.90
2019-03-25T03:07:50.172Z,5.93
2019-03-25T03:10:18.591Z,5.95
2019-03-25T03:12:46.999Z,5.98
2019-03-25T03:15:15.407Z,5.99
2019-03-25T03:17:45.360Z,6.02
2019-03-25T03:20:13.809Z,6.06
2019-03-25T03:22:42.229Z,6.09
2019-03-25T03:25:10.701Z,6.14
2019-03-25T03:27:39.126Z,6.18
2019-03-25T03:30:08.600Z,6.19
2019-03-25T03:32:36.983Z,6.24
2019-03-25T03:35:07.024Z,6.24
2019-03-25T03:37:35.528Z,6.23
2019-03-25T03:40:07.260Z,6.23
2019-03-25T03:42:35.663Z,6.24
2019-03-25T03:45:05.712Z,6.24
2019-03-25T03:47:34.110Z,6.24
2019-03-25T03:50:02.521Z,6.24
2019-03-25T03:52:31.060Z,6.23
2019-03-25T03:54:59.787Z,6.25
2019-03-25T03:57:29.340Z,6.28
2019-03-25T03:59:58.855Z,6.31
2019-03-25T04:02:27.277Z,6.32
2019-03-25T04:04:55.673Z,6.30
2019-03-25T04:07:24.129Z,6.30
2019-03-25T04:09:52.523Z,6.31
2019-03-25T04:12:20.949Z,6.33
2019-03-25T04:14:49.511Z,6.32
2019-03-25T04:17:17.907Z,6.33
2019-03-25T04:19:46.329Z,6.36
2019-03-25T04:22:14.721Z,6.36
2019-03-25T04:24:43.130Z,6.36
2019-03-25T04:27:11.612Z,6.36
2019-03-25T04:29:40.043Z,6.32
2019-03-25T04:32:08.534Z,6.29
2019-03-25T04:34:37.017Z,6.27
2019-03-25T04:37:05.503Z,6.24
2019-03-25T04:39:33.911Z,6.21
2019-03-25T04:42:02.318Z,6.21
2019-03-25T04:44:30.723Z,6.21
2019-03-25T04:46:59.121Z,6.15
2019-03-25T04:49:27.537Z,6.13
2019-03-25T04:51:55.938Z,6.11
2019-03-25T04:54:24.359Z,6.07
2019-03-25T04:56:52.749Z,6.04
2019-03-25T04:59:21.159Z,6.00
2019-03-25T05:01:49.568Z,5.97
2019-03-25T05:04:17.984Z,5.95
2019-03-25T05:06:46.383Z,5.90
2019-03-25T05:09:14.793Z,5.89
2019-03-25T05:11:43.196Z,5.90
2019-03-25T05:14:11.603Z,5.89
2019-03-25T05:16:40.044Z,5.84
2019-03-25T05:19:08.541Z,5.85
2019-03-25T05:21:36.944Z,5.78
2019-03-25T05:24:05.347Z,5.77
2019-03-25T05:26:33.782Z,5.73
2019-03-25T05:29:02.183Z,5.73
2019-03-25T05:31:30.601Z,5.74
2019-03-25T05:33:59.002Z,5.69
2019-03-25T05:36:27.431Z,5.71
2019-03-25T05:38:55.847Z,5.56
2019-03-25T05:41:24.272Z,5.67
2019-03-25T05:43:52.665Z,5.65
2019-03-25T05:46:21.082Z,5.64
2019-03-25T05:48:49.520Z,5.57
2019-03-25T05:51:17.914Z,5.52
2019-03-25T05:53:46.317Z,5.50
2019-03-25T05:56:14.717Z,5.44
2019-03-25T05:58:43.124Z,5.45
2019-03-25T06:01:11.611Z,5.48
2019-03-25T06:03:40.005Z,5.46
2019-03-25T06:06:08.439Z,5.47
2019-03-25T06:08:36.914Z,5.44
2019-03-25T06:11:05.325Z,5.44
2019-03-25T06:13:33.764Z,5.48
2019-03-25T06:16:02.180Z,5.48
2019-03-25T06:18:30.573Z,5.41
2019-03-25T06:20:58.980Z,5.40
2019-03-25T06:23:27.441Z,5.37
2019-03-25T06:25:55.871Z,5.39
2019-03-25T06:28:24.282Z,5.44
2019-03-25T06:30:52.680Z,5.56
2019-03-25T06:33:21.093Z,5.62
2019-03-25T06:35:49.509Z,5.61
2019-03-25T06:38:17.899Z,5.57
2019-03-25T06:40:46.292Z,5.52
2019-03-25T06:43:14.710Z,5.54
2019-03-25T06:45:43.190Z,5.55
2019-03-25T06:48:11.608Z,5.52
2019-03-25T06:50:39.999Z,5.52
2019-03-25T06:53:08.464Z,5.55
2019-03-25T06:55:36.868Z,5.62
2019-03-25T06:58:05.330Z,5.64
2019-03-25T07:00:33.737Z,5.61
2019-03-25T07:03:02.153Z,5.67
2019-03-25T07:05:30.556Z,5.76
2019-03-25T07:07:58.965Z,5.82
2019-03-25T07:10:35.244Z,5.87
2019-03-25T07:13:04.594Z,5.94
2019-03-25T07:15:33.230Z,5.95
2019-03-25T07:18:01.703Z,5.93
2019-03-25T07:20:30.188Z,5.93
2019-03-25T07:22:58.668Z,5.95
2019-03-25T07:25:27.085Z,5.98
2019-03-25T07:27:55.482Z,5.97
2019-03-25T07:30:23.983Z,5.94
2019-03-25T07:32:52.469Z,5.95
2019-03-25T07:35:22.533Z,6.01
2019-03-25T07:37:50.926Z,6.03
2019-03-25T07:40:19.427Z,6.14
2019-03-25T07:42:47.821Z,6.21
2019-03-25T07:45:16.731Z,6.24
2019-03-25T07:47:45.107Z,6.22
2019-03-25T07:50:13.872Z,6.24
2019-03-25T07:52:42.275Z,6.26
2019-03-25T07:55:10.821Z,6.24
2019-03-25T07:57:47.690Z,6.28
2019-03-25T08:00:14.643Z,6.43
2019-03-25T08:02:43.090Z,6.53
2019-03-25T08:05:11.636Z,6.51
2019-03-25T08:07:40.094Z,6.51
2019-03-25T08:10:09.121Z,6.53
2019-03-25T08:12:37.601Z,6.51
2019-03-25T08:15:07.740Z,6.43
2019-03-25T08:17:36.211Z,6.45
2019-03-25T08:20:07.058Z,6.53
2019-03-25T08:22:35.459Z,6.64
2019-03-25T08:25:05.522Z,6.68
2019-03-25T08:27:33.920Z,6.72
2019-03-25T08:30:02.401Z,6.67
2019-03-25T08:32:30.918Z,6.65
2019-03-25T08:34:59.353Z,6.65
2019-03-25T08:37:27.771Z,6.61
2019-03-25T08:39:56.244Z,6.62
2019-03-25T08:42:24.657Z,6.62
2019-03-25T08:44:53.063Z,6.62
2019-03-25T08:47:21.552Z,6.62
2019-03-25T08:49:49.958Z,6.62
2019-03-25T08:52:18.371Z,6.60
2019-03-25T08:54:46.799Z,6.60
2019-03-25T08:57:15.232Z,6.54
2019-03-25T08:59:43.741Z,6.50
2019-03-25T09:02:12.206Z,6.42
2019-03-25T09:04:40.639Z,6.21
2019-03-25T09:07:09.102Z,5.87
2019-03-25T09:09:37.533Z,5.72
2019-03-25T09:12:05.954Z,5.74
2019-03-25T09:14:34.362Z,5.94
2019-03-25T09:17:02.853Z,6.08
2019-03-25T09:19:31.505Z,6.26
2019-03-25T09:21:59.925Z,6.48
2019-03-25T09:24:28.334Z,6.61
2019-03-25T09:26:56.765Z,6.64
2019-03-25T09:29:26.697Z,6.58
2019-03-25T09:31:55.182Z,6.55
2019-03-25T09:34:23.607Z,6.59
2019-03-25T09:36:52.018Z,6.64
2019-03-25T09:39:20.463Z,6.61
2019-03-25T09:41:48.889Z,6.59
2019-03-25T09:44:17.263Z,6.58
2019-03-25T09:46:45.761Z,6.64
2019-03-25T09:49:14.154Z,6.75
2019-03-25T09:51:42.591Z,6.92
2019-03-25T09:54:11.103Z,6.91
2019-03-25T09:56:39.578Z,6.77
2019-03-25T09:59:08.133Z,6.76
2019-03-25T10:01:36.536Z,6.72
2019-03-25T10:04:04.940Z,6.65
2019-03-25T10:06:33.363Z,6.60
2019-03-25T10:09:01.781Z,6.66
2019-03-25T10:11:30.186Z,6.76
2019-03-25T10:13:58.598Z,6.92
2019-03-25T10:16:26.999Z,7.20
2019-03-25T10:18:55.412Z,7.37
2019-03-25T10:21:23.815Z,7.69
2019-03-25T10:23:52.302Z,7.80
2019-03-25T10:26:20.701Z,7.80
2019-03-25T10:28:49.415Z,7.55
2019-03-25T10:31:17.876Z,6.51
2019-03-25T10:33:46.318Z,5.86
2019-03-25T10:36:14.709Z,5.76
2019-03-25T10:38:43.124Z,5.89
2019-03-25T10:41:11.522Z,6.04
2019-03-25T10:43:39.946Z,6.16
2019-03-25T10:46:08.438Z,6.28
2019-03-25T10:48:36.854Z,6.43
2019-03-25T10:51:05.448Z,6.57
2019-03-25T10:53:33.886Z,6.70
2019-03-25T10:56:02.283Z,6.80
2019-03-25T10:58:30.698Z,6.79
2019-03-25T11:00:59.090Z,6.93
2019-03-25T11:03:27.499Z,7.24
2019-03-25T11:05:55.966Z,7.41
2019-03-25T11:08:24.459Z,7.58
2019-03-25T11:10:52.933Z,7.66
2019-03-25T11:13:21.417Z,7.61
2019-03-25T11:15:49.834Z,7.59
2019-03-25T11:18:18.242Z,7.50
2019-03-25T11:20:46.737Z,7.24
2019-03-25T11:23:15.158Z,7.15
2019-03-25T11:25:43.595Z,7.04
2019-03-25T11:28:12.391Z,7.13
2019-03-25T11:30:55.755Z,7.24
2019-03-25T11:33:24.785Z,7.09
2019-03-25T11:35:53.391Z,7.03
2019-03-25T11:38:21.935Z,6.82
2019-03-25T11:40:50.432Z,6.41
2019-03-25T11:43:18.826Z,6.15
2019-03-25T11:45:47.440Z,6.10
2019-03-25T11:48:15.892Z,6.09
2019-03-25T11:50:44.392Z,6.17
2019-03-25T11:53:12.793Z,6.28
2019-03-25T11:55:41.185Z,6.38
2019-03-25T11:58:09.589Z,6.61
2019-03-25T12:00:37.994Z,6.86
2019-03-25T12:03:06.472Z,7.12
2019-03-25T12:05:34.889Z,7.34
2019-03-25T12:08:03.366Z,7.51
2019-03-25T12:10:31.787Z,7.62
2019-03-25T12:13:00.180Z,7.58
2019-03-25T12:15:28.580Z,7.60
2019-03-25T12:17:56.995Z,7.67
2019-03-25T12:20:25.401Z,7.77
2019-03-25T12:22:53.826Z,7.78
2019-03-25T12:25:22.218Z,7.62
2019-03-25T12:27:50.695Z,7.58
2019-03-25T12:30:19.232Z,7.41
2019-03-25T12:32:47.648Z,7.24
2019-03-25T12:35:16.308Z,7.08
2019-03-25T12:37:44.730Z,6.76
2019-03-25T12:40:13.299Z,6.59
2019-03-25T12:42:41.706Z,6.63
2019-03-25T12:45:10.420Z,6.65
2019-03-25T12:47:38.854Z,6.67
2019-03-25T12:50:08.937Z,6.64
2019-03-25T12:52:37.344Z,6.63
2019-03-25T12:55:06.077Z,6.91
2019-03-25T12:57:34.577Z,7.11
2019-03-25T13:00:04.285Z,7.15
2019-03-25T13:02:32.688Z,7.37
2019-03-25T13:05:01.125Z,7.64
2019-03-25T13:07:29.533Z,7.53
2019-03-25T13:09:57.941Z,7.59
2019-03-25T13:12:26.368Z,8.39
2019-03-25T13:14:54.770Z,8.41
2019-03-25T13:17:23.181Z,8.92
2019-03-25T13:19:51.621Z,8.97
2019-03-25T13:22:20.011Z,9.29
2019-03-25T13:24:48.450Z,9.40
2019-03-25T13:27:16.868Z,8.95
2019-03-25T13:29:52.498Z,8.60
2019-03-25T13:32:15.402Z,8.38
2019-03-25T13:34:43.836Z,8.19
2019-03-25T13:37:12.329Z,8.04
2019-03-25T13:39:40.827Z,8.12
2019-03-25T13:42:09.272Z,8.29
2019-03-25T13:44:37.678Z,8.34
2019-03-25T13:47:06.130Z,8.07
2019-03-25T13:49:34.527Z,7.89
2019-03-25T13:52:03.002Z,7.73
2019-03-25T13:54:31.389Z,7.61
2019-03-25T13:56:59.869Z,7.60
2019-03-25T13:59:28.371Z,7.41
2019-03-25T14:01:56.807Z,7.07
2019-03-25T14:04:25.204Z,6.94
2019-03-25T14:06:53.634Z,6.80
2019-03-25T14:09:22.053Z,6.88
2019-03-25T14:11:50.464Z,6.98
2019-03-25T14:14:18.889Z,6.94
2019-03-25T14:16:47.283Z,6.93
2019-03-25T14:19:15.726Z,6.96
2019-03-25T14:21:44.111Z,6.91
2019-03-25T14:24:12.540Z,6.96
2019-03-25T14:26:40.938Z,7.03
2019-03-25T14:29:09.344Z,6.89
2019-03-25T14:31:37.744Z,6.85
2019-03-25T14:34:06.237Z,6.76
2019-03-25T14:36:34.641Z,6.72
2019-03-25T14:39:03.502Z,6.69
2019-03-25T14:41:31.939Z,7.11
2019-03-25T14:44:00.351Z,7.28
2019-03-25T14:46:28.782Z,7.20
2019-03-25T14:48:57.334Z,7.18
2019-03-25T14:51:25.729Z,7.37
2019-03-25T14:53:54.250Z,7.52
2019-03-25T14:56:22.632Z,7.67
2019-03-25T14:58:51.138Z,7.49
2019-03-25T15:01:19.572Z,7.48
2019-03-25T15:03:48.053Z,7.48
2019-03-25T15:06:16.463Z,7.44
2019-03-25T15:08:44.933Z,7.35
2019-03-25T15:11:13.332Z,7.32
2019-03-25T15:13:41.733Z,7.31
2019-03-25T15:16:10.215Z,7.38
2019-03-25T15:18:38.631Z,7.49
2019-03-25T15:21:07.044Z,7.70
2019-03-25T15:23:35.460Z,7.84
2019-03-25T15:26:03.939Z,7.89
2019-03-25T15:28:32.372Z,7.92
2019-03-25T15:31:00.775Z,8.00
2019-03-25T15:33:29.296Z,8.02
2019-03-25T15:35:57.857Z,8.00
2019-03-25T15:38:26.440Z,7.97
2019-03-25T15:40:54.851Z,7.90
2019-03-25T15:43:23.274Z,7.74
2019-03-25T15:45:52.157Z,7.52
2019-03-25T15:48:20.858Z,7.37
2019-03-25T15:50:49.280Z,7.32
2019-03-25T15:53:17.702Z,7.37
2019-03-25T15:55:46.129Z,7.46
2019-03-25T15:58:21.689Z,7.53
2019-03-25T16:00:47.936Z,7.58
2019-03-25T16:03:14.876Z,7.64
2019-03-25T16:05:43.295Z,7.64
2019-03-25T16:08:11.745Z,7.51
2019-03-25T16:10:40.159Z,7.42
2019-03-25T16:13:08.659Z,7.40
2019-03-25T16:15:42.010Z,7.42
2019-03-25T16:18:12.392Z,7.49
2019-03-25T16:20:40.791Z,7.60
2019-03-25T16:23:09.199Z,7.77
2019-03-25T16:25:37.714Z,5.59
2019-03-25T16:28:06.262Z,7.83
2019-03-25T16:30:34.759Z,7.90
2019-03-25T16:33:03.179Z,7.90
2019-03-25T16:35:31.600Z,7.86
2019-03-25T16:38:00.004Z,7.84
2019-03-25T16:40:28.427Z,7.83
2019-03-25T16:42:56.866Z,7.83
2019-03-25T16:45:25.313Z,7.83
2019-03-25T16:47:53.715Z,7.86
2019-03-25T16:50:22.117Z,7.86
2019-03-25T16:52:50.540Z,7.88
2019-03-25T16:55:18.945Z,7.95
2019-03-25T16:57:47.419Z,7.88
2019-03-25T17:00:26.982Z,7.94
2019-03-25T17:02:46.200Z,7.97
2019-03-25T17:05:14.664Z,7.99
2019-03-25T17:07:43.085Z,7.99
2019-03-25T17:10:12.373Z,8.05
2019-03-25T17:12:40.796Z,8.12
2019-03-25T17:15:09.731Z,8.12
2019-03-25T17:17:38.276Z,8.07
2019-03-25T17:20:07.044Z,8.05
2019-03-25T17:22:35.512Z,7.97
2019-03-25T17:25:07.522Z,7.92
2019-03-25T17:27:36.032Z,7.87
2019-03-25T17:30:09.995Z,7.88
2019-03-25T17:32:38.440Z,7.82
2019-03-25T17:35:07.643Z,7.80
2019-03-25T17:37:36.105Z,7.75
2019-03-25T17:40:07.282Z,7.71
2019-03-25T17:42:35.831Z,7.69
2019-03-25T17:45:06.669Z,7.66
2019-03-25T17:47:35.164Z,7.67
2019-03-25T17:50:05.381Z,7.64
2019-03-25T17:52:33.797Z,7.64
2019-03-25T17:55:02.386Z,7.66
2019-03-25T17:57:30.849Z,7.62
2019-03-25T17:59:59.249Z,7.62
2019-03-25T18:02:27.754Z,7.64
2019-03-25T18:04:56.147Z,7.65
2019-03-25T18:07:24.586Z,7.66
2019-03-25T18:09:53.003Z,7.64
2019-03-25T18:12:21.456Z,7.63
2019-03-25T18:14:49.861Z,7.62
2019-03-25T18:17:18.258Z,7.61
2019-03-25T18:19:46.689Z,7.54
2019-03-25T18:22:15.109Z,7.58
2019-03-25T18:24:43.512Z,7.57
2019-03-25T18:27:11.935Z,7.52
2019-03-25T18:29:40.356Z,7.47
2019-03-25T18:32:08.832Z,7.44
2019-03-25T18:34:37.329Z,7.39
2019-03-25T18:37:05.734Z,7.38
2019-03-25T18:39:34.154Z,7.36
2019-03-25T18:42:02.559Z,7.35
2019-03-25T18:44:30.955Z,7.32
2019-03-25T18:46:59.453Z,7.32
2019-03-25T18:49:27.905Z,7.32
2019-03-25T18:51:56.482Z,7.30
2019-03-25T18:54:24.954Z,7.30
2019-03-25T18:56:53.504Z,7.28
2019-03-25T18:59:22.002Z,7.28
2019-03-25T19:01:54.697Z,7.27
2019-03-25T19:04:20.616Z,7.26
2019-03-25T19:06:49.483Z,7.22
2019-03-25T19:09:17.904Z,7.21
2019-03-25T19:11:46.532Z,7.20
2019-03-25T19:14:14.902Z,7.17
2019-03-25T19:16:43.302Z,7.17
2019-03-25T19:19:11.742Z,7.15
2019-03-25T19:21:40.157Z,7.18
2019-03-25T19:24:08.626Z,7.17
2019-03-25T19:26:42.703Z,7.17
2019-03-25T19:29:11.070Z,7.19
2019-03-25T19:31:41.058Z,7.20
2019-03-25T19:34:09.452Z,7.19
2019-03-25T19:36:37.896Z,7.17
2019-03-25T19:39:07.537Z,7.17
2019-03-25T19:41:39.983Z,7.16
2019-03-25T19:44:08.490Z,7.14
2019-03-25T19:46:36.902Z,7.15
2019-03-25T19:49:05.390Z,7.14
2019-03-25T19:51:33.796Z,7.12
2019-03-25T19:54:02.217Z,7.12
2019-03-25T19:56:30.672Z,7.11
2019-03-25T19:58:59.078Z,7.10
2019-03-25T20:01:30.344Z,7.09
2019-03-25T20:03:58.765Z,7.14
2019-03-25T20:06:27.154Z,7.12
2019-03-25T20:08:55.640Z,7.14
2019-03-25T20:11:24.617Z,7.10
2019-03-25T20:13:52.994Z,7.08
2019-03-25T20:16:21.456Z,7.08
2019-03-25T20:18:58.628Z,7.07
2019-03-25T20:21:28.667Z,7.06
2019-03-25T20:23:57.104Z,7.06
2019-03-25T20:26:25.658Z,7.07
2019-03-25T20:28:54.130Z,7.08
2019-03-25T20:31:22.682Z,7.05
2019-03-25T20:33:51.118Z,7.04
2019-03-25T20:36:19.605Z,7.02
2019-03-25T20:38:49.405Z,7.01
2019-03-25T20:41:18.196Z,6.99
2019-03-25T20:43:46.648Z,6.99
2019-03-25T20:46:15.090Z,6.99
2019-03-25T20:48:43.446Z,6.98
2019-03-25T20:51:11.929Z,6.96
2019-03-25T20:53:40.346Z,6.98
2019-03-25T20:56:08.770Z,6.94
2019-03-25T20:58:37.250Z,6.94
2019-03-25T21:01:05.873Z,6.92
2019-03-25T21:03:34.306Z,6.91
2019-03-25T21:06:02.681Z,6.90
2019-03-25T21:08:31.177Z,6.89
2019-03-25T21:10:59.613Z,6.88
2019-03-25T21:13:28.049Z,6.87
2019-03-25T21:15:56.545Z,6.87
2019-03-25T21:18:24.986Z,6.87
2019-03-25T21:20:53.526Z,6.87
2019-03-25T21:23:22.034Z,6.86
2019-03-25T21:25:50.502Z,6.85
2019-03-25T21:28:18.936Z,6.82
2019-03-25T21:30:48.473Z,6.82
2019-03-25T21:33:17.250Z,6.81
2019-03-25T21:35:45.698Z,6.80
2019-03-25T21:38:14.189Z,6.79
2019-03-25T21:40:42.697Z,6.81
2019-03-25T21:43:11.092Z,6.79
2019-03-25T21:45:39.552Z,6.79
2019-03-25T21:48:07.988Z,6.77
2019-03-25T21:50:37.377Z,6.77
2019-03-25T21:53:07.465Z,6.75
2019-03-25T21:55:35.836Z,6.73
2019-03-25T21:58:04.373Z,6.72
2019-03-25T22:00:32.779Z,6.69
2019-03-25T22:03:11.451Z,6.69
2019-03-25T22:05:31.550Z,6.66
2019-03-25T22:07:59.992Z,6.67
2019-03-25T22:10:28.405Z,6.64
2019-03-25T22:12:56.957Z,6.61
2019-03-25T22:15:25.419Z,6.57
2019-03-25T22:17:53.820Z,6.55
2019-03-25T22:20:22.228Z,6.53
2019-03-25T22:22:50.630Z,6.51
2019-03-25T22:25:19.038Z,6.52
2019-03-25T22:27:47.497Z,6.53
2019-03-25T22:30:15.993Z,6.53
2019-03-25T22:32:44.482Z,6.53
2019-03-25T22:35:13.039Z,6.52
2019-03-25T22:37:41.540Z,6.52
2019-03-25T22:40:10.148Z,6.52
2019-03-25T22:42:38.574Z,6.51
2019-03-25T22:45:07.719Z,6.52
2019-03-25T22:47:36.579Z,6.51
2019-03-25T22:50:07.593Z,6.46
2019-03-25T22:52:36.017Z,6.44
2019-03-25T22:55:06.958Z,6.42
2019-03-25T22:57:35.364Z,6.43
2019-03-25T23:00:05.158Z,6.43
2019-03-25T23:02:33.550Z,6.41
2019-03-25T23:05:01.948Z,6.42
2019-03-25T23:07:30.385Z,6.41
2019-03-25T23:09:59.011Z,6.42
2019-03-25T23:12:27.598Z,6.41
2019-03-25T23:14:56.031Z,6.36
2019-03-25T23:17:24.432Z,6.32
2019-03-25T23:19:52.842Z,6.29
2019-03-25T23:22:21.253Z,6.30
2019-03-25T23:24:49.650Z,6.28
2019-03-25T23:27:18.083Z,6.28
2019-03-25T23:29:46.493Z,6.27
2019-03-25T23:32:14.894Z,6.27
2019-03-25T23:34:43.324Z,6.26
2019-03-25T23:37:11.727Z,6.24
2019-03-25T23:39:40.115Z,6.25
2019-03-25T23:42:08.524Z,6.24
2019-03-25T23:44:36.916Z,6.21
2019-03-25T23:47:05.355Z,6.19
2019-03-25T23:49:33.758Z,6.20
2019-03-25T23:52:02.163Z,6.19
2019-03-25T23:54:30.589Z,6.19
2019-03-25T23:56:59.069Z,6.17
2019-03-25T23:59:27.477Z,6.16
